Archival Weather

Aeroparque Jorge Newbery

Buenos Aires, Argentina (SABE)

Report from: Thursday, September 21, 2023 3:00 AM -03
Current time: Saturday, March 2, 2024 7:27 AM -03

Current weather – Weather history – Daily summaries
Weather forecast

Present weatherLight drizzle, mist
Temperature16.0°C (60.8°F)
Dew point16.0°C (60.8°F)
Winds 4 kts (2.1 m/s, 4.6 mph) East (80°)
Visibility3280.8 ft. (1 km)
Clouds Ceiling: Overcast 100 ft. (30 m)
Altimeter29.85 in.Hg (1011 mB)
Relative humidity100 %
Density altitude444 ft. (135 m)
Remarks No significant changes expected in the next two hours
Flight conditions Low Instrument Meteorological Conditions
Raw dataSABE 210600Z 08004KT 1000 R13/P2000N -DZ BR OVC001 16/16 Q1011 NOSIG RMK PP999
An error has occurred. This application may no longer respond until reloaded. Reload 🗙